Time;durP1;ratioP1;P1;durP2;ratioP2;P2;SDS_P1;SDS_P2;PMS_P1;PMS_P2;Temp;Humidity;BMP_temperature;BMP_pressure;BME280_temperature;BME280_humidity;BME280_pressure;Samples;Min_cycle;Max_cycle;Signal;HPM_P1;HPM_P2
2021/03/13 00:01:29;;;;;;;26.05;5.70;;;;;;;;;;5051640;28;20506;-67
2021/03/13 00:04:14;;;;;;;27.83;6.15;;;;;;;;;;5064518;28;20114;-67
2021/03/13 00:06:59;;;;;;;24.65;5.55;;;;;;;;;;5051628;28;20135;-67
2021/03/13 00:09:45;;;;;;;25.25;7.40;;;;;;;;;;5051618;28;20040;-68
2021/03/13 00:12:31;;;;;;;21.63;6.35;;;;;;;;;;5051895;28;20139;-67
2021/03/13 00:15:16;;;;;;;21.13;5.82;;;;;;;;;;5052201;28;20051;-67
2021/03/13 00:18:02;;;;;;;28.50;6.38;;;;;;;;;;5051637;28;20048;-67
2021/03/13 00:20:47;;;;;;;23.90;6.55;;;;;;;;;;5051456;28;20053;-67
2021/03/13 00:23:33;;;;;;;25.20;6.82;;;;;;;;;;5065334;28;20131;-66
2021/03/13 00:26:18;;;;;;;26.00;6.05;;;;;;;;;;5071260;28;20411;-67
2021/03/13 00:29:04;;;;;;;30.02;6.15;;;;;;;;;;5071475;28;20051;-67
2021/03/13 00:31:53;;;;;;;26.25;6.95;;;;;;;;;;5071393;28;20145;-67
2021/03/13 00:34:38;;;;;;;12.93;5.07;;;;;;;;;;5068803;28;20041;-67
2021/03/13 00:37:24;;;;;;;26.15;6.95;;;;;;;;;;5071311;28;20066;-67
2021/03/13 00:40:10;;;;;;;25.30;5.90;;;;;;;;;;5071280;28;20519;-67
2021/03/13 00:42:56;;;;;;;30.45;6.22;;;;;;;;;;5081764;28;20040;-67
2021/03/13 00:45:41;;;;;;;23.20;4.72;;;;;;;;;;5077213;28;20045;-68
2021/03/13 00:48:27;;;;;;;20.17;4.93;;;;;;;;;;5050869;28;20037;-67
2021/03/13 00:51:12;;;;;;;26.38;5.50;;;;;;;;;;5054994;28;20099;-67
2021/03/13 00:53:58;;;;;;;28.20;5.93;;;;;;;;;;5062441;28;20047;-67
2021/03/13 00:56:43;;;;;;;24.38;6.25;;;;;;;;;;5073579;28;20043;-67
2021/03/13 00:59:28;;;;;;;19.10;5.65;;;;;;;;;;5073743;28;20406;-67
2021/03/13 01:02:14;;;;;;;18.88;5.75;;;;;;;;;;5073664;28;20058;-67
2021/03/13 01:05:00;;;;;;;18.67;5.63;;;;;;;;;;5060905;28;20037;-67
2021/03/13 01:07:47;;;;;;;22.00;6.65;;;;;;;;;;5053447;28;20144;-67
2021/03/13 01:10:34;;;;;;;20.70;6.03;;;;;;;;;;5053475;28;20045;-68
2021/03/13 01:13:20;;;;;;;25.70;7.40;;;;;;;;;;5067474;28;20041;-67
2021/03/13 01:16:06;;;;;;;19.17;7.53;;;;;;;;;;5072190;28;20049;-67
2021/03/13 01:18:51;;;;;;;24.58;6.70;;;;;;;;;;5074364;28;20167;-68
2021/03/13 01:21:43;;;;;;;19.05;6.65;;;;;;;;;;5073231;28;20134;-67
2021/03/13 01:24:30;;;;;;;22.23;6.55;;;;;;;;;;5069861;28;20052;-69
2021/03/13 01:27:16;;;;;;;20.70;7.55;;;;;;;;;;5053121;28;20041;-67
2021/03/13 01:30:01;;;;;;;23.50;7.25;;;;;;;;;;5054057;28;20047;-67
2021/03/13 01:32:46;;;;;;;19.58;6.95;;;;;;;;;;5053146;28;20474;-67
2021/03/13 01:35:32;;;;;;;23.25;7.57;;;;;;;;;;5062322;28;20502;-67
2021/03/13 01:38:18;;;;;;;23.95;7.53;;;;;;;;;;5072930;28;20529;-67
2021/03/13 01:41:03;;;;;;;23.42;6.90;;;;;;;;;;5072892;28;20049;-67
2021/03/13 01:43:49;;;;;;;23.27;7.45;;;;;;;;;;5072972;28;20072;-67
2021/03/13 01:46:35;;;;;;;26.95;7.30;;;;;;;;;;5058206;28;20040;-67
2021/03/13 01:49:27;;;;;;;22.73;6.47;;;;;;;;;;5073748;28;20045;-67
2021/03/13 01:52:13;;;;;;;18.65;6.35;;;;;;;;;;5073812;28;20055;-67
2021/03/13 01:54:59;;;;;;;22.00;6.95;;;;;;;;;;5072425;28;20045;-67
2021/03/13 01:57:44;;;;;;;23.75;7.28;;;;;;;;;;5067378;28;20040;-67
2021/03/13 02:00:31;;;;;;;19.67;6.60;;;;;;;;;;5051676;28;20055;-67
2021/03/13 02:03:20;;;;;;;29.85;8.43;;;;;;;;;;5052444;28;20044;-67
2021/03/13 02:06:06;;;;;;;23.92;8.80;;;;;;;;;;5052300;28;20048;-67
2021/03/13 02:08:55;;;;;;;16.63;5.85;;;;;;;;;;5063785;28;20518;-67
2021/03/13 02:11:50;;;;;;;22.77;7.20;;;;;;;;;;5073317;28;20046;-67
2021/03/13 02:14:40;;;;;;;19.15;6.10;;;;;;;;;;5086035;28;20056;-67
2021/03/13 02:17:49;;;;;;;22.60;6.68;;;;;;;;;;5072133;28;20097;-67
2021/03/13 02:20:53;;;;;;;22.75;6.57;;;;;;;;;;5072066;28;20040;-67
2021/03/13 02:23:54;;;;;;;21.45;6.38;;;;;;;;;;5072129;28;20117;-67
2021/03/13 02:26:49;;;;;;;27.02;5.72;;;;;;;;;;5071873;28;20068;-67
2021/03/13 02:30:00;;;;;;;25.08;6.53;;;;;;;;;;5071328;28;20048;-67
2021/03/13 02:33:16;;;;;;;24.73;6.25;;;;;;;;;;5072904;28;20040;-67
2021/03/13 02:36:40;;;;;;;19.30;7.22;;;;;;;;;;5050213;28;20048;-67
2021/03/13 02:39:28;;;;;;;20.80;6.97;;;;;;;;;;5028414;28;20516;-67
2021/03/13 02:42:20;;;;;;;13.95;5.85;;;;;;;;;;5036843;28;20048;-67
2021/03/13 02:45:07;;;;;;;14.77;5.28;;;;;;;;;;5051442;28;20132;-67
2021/03/13 02:47:52;;;;;;;19.08;6.22;;;;;;;;;;5051613;28;20120;-67
2021/03/13 02:50:39;;;;;;;19.10;5.32;;;;;;;;;;5065515;28;20119;-67
2021/03/13 02:53:29;;;;;;;21.95;5.28;;;;;;;;;;5071535;28;20101;-67
2021/03/13 02:56:19;;;;;;;17.80;5.95;;;;;;;;;;5071385;28;20453;-68
2021/03/13 02:59:05;;;;;;;21.05;7.35;;;;;;;;;;5070082;28;20041;-67
2021/03/13 03:01:55;;;;;;;19.08;6.32;;;;;;;;;;5050820;28;20037;-67
2021/03/13 03:04:41;;;;;;;20.45;7.15;;;;;;;;;;5050137;28;20136;-67
2021/03/13 03:07:26;;;;;;;18.75;7.20;;;;;;;;;;5051421;28;20124;-68
2021/03/13 03:10:17;;;;;;;16.08;6.07;;;;;;;;;;5071707;28;20045;-68
2021/03/13 03:13:03;;;;;;;16.63;5.85;;;;;;;;;;5072290;28;20047;-67
2021/03/13 03:15:49;;;;;;;17.90;6.13;;;;;;;;;;5070896;28;20494;-68
2021/03/13 03:18:34;;;;;;;19.20;6.10;;;;;;;;;;5065971;28;20041;-67
2021/03/13 03:21:21;;;;;;;13.23;5.47;;;;;;;;;;5051028;28;20550;-68
2021/03/13 03:24:10;;;;;;;16.95;6.05;;;;;;;;;;5051154;28;20041;-67
2021/03/13 03:26:55;;;;;;;12.85;5.35;;;;;;;;;;5051232;28;20049;-67
2021/03/13 03:29:40;;;;;;;16.00;5.95;;;;;;;;;;5062400;28;20682;-67
2021/03/13 03:32:28;;;;;;;11.10;5.07;;;;;;;;;;5071069;28;20060;-67
2021/03/13 03:35:15;;;;;;;14.27;5.65;;;;;;;;;;5071042;28;20052;-67
2021/03/13 03:38:01;;;;;;;11.23;5.00;;;;;;;;;;5070981;28;20487;-67
2021/03/13 03:40:47;;;;;;;9.07;4.97;;;;;;;;;;5052908;28;20063;-67
2021/03/13 03:43:35;;;;;;;9.30;4.28;;;;;;;;;;5050870;28;20052;-67
2021/03/13 03:46:22;;;;;;;9.40;4.65;;;;;;;;;;5050437;28;20049;-69
2021/03/13 03:49:08;;;;;;;8.00;4.50;;;;;;;;;;5065749;28;20122;-68
2021/03/13 03:52:01;;;;;;;6.80;3.80;;;;;;;;;;5070853;28;20041;-67
2021/03/13 03:54:46;;;;;;;13.75;4.75;;;;;;;;;;5070726;28;20135;-68
2021/03/13 03:57:32;;;;;;;6.43;3.35;;;;;;;;;;5084893;28;20413;-68
2021/03/13 04:00:17;;;;;;;7.90;2.92;;;;;;;;;;5076818;28;20076;-67
2021/03/13 04:03:03;;;;;;;4.95;2.38;;;;;;;;;;5064827;28;20049;-68
2021/03/13 04:05:48;;;;;;;7.65;2.40;;;;;;;;;;5064460;28;20049;-68
2021/03/13 04:08:33;;;;;;;3.92;2.72;;;;;;;;;;5051913;28;20470;-68
2021/03/13 04:11:19;;;;;;;4.50;2.72;;;;;;;;;;5065703;28;20077;-67
2021/03/13 04:14:04;;;;;;;4.95;2.55;;;;;;;;;;5051863;28;20045;-68
2021/03/13 04:16:50;;;;;;;3.58;2.55;;;;;;;;;;5064515;28;20041;-67
2021/03/13 04:19:35;;;;;;;7.30;3.97;;;;;;;;;;5064594;28;20107;-67
2021/03/13 04:22:21;;;;;;;3.97;2.20;;;;;;;;;;5070524;28;20120;-67
2021/03/13 04:25:08;;;;;;;3.10;2.50;;;;;;;;;;5087860;28;20541;-67
2021/03/13 04:27:53;;;;;;;4.75;3.22;;;;;;;;;;5075213;28;20040;-66
2021/03/13 04:30:38;;;;;;;7.32;3.20;;;;;;;;;;5086118;28;20386;-68
2021/03/13 04:33:23;;;;;;;6.65;3.30;;;;;;;;;;5055325;28;20107;-66
2021/03/13 04:36:09;;;;;;;5.20;3.85;;;;;;;;;;5054860;28;20407;-67
2021/03/13 04:38:54;;;;;;;4.95;3.45;;;;;;;;;;5068168;28;20120;-67
2021/03/13 04:41:39;;;;;;;7.97;3.40;;;;;;;;;;5075529;28;20040;-67
2021/03/13 04:44:25;;;;;;;9.35;4.43;;;;;;;;;;5087899;28;20044;-67
2021/03/13 04:47:10;;;;;;;5.32;4.03;;;;;;;;;;5087946;28;20037;-67
2021/03/13 04:49:55;;;;;;;7.32;4.30;;;;;;;;;;5088051;28;20064;-67
2021/03/13 04:52:40;;;;;;;5.85;3.88;;;;;;;;;;5074541;28;20071;-68
2021/03/13 04:55:26;;;;;;;6.05;4.00;;;;;;;;;;5054603;28;20053;-67
2021/03/13 04:58:11;;;;;;;7.00;4.47;;;;;;;;;;5054669;28;20049;-67
2021/03/13 05:00:56;;;;;;;5.82;4.20;;;;;;;;;;5067676;28;20045;-67
2021/03/13 05:03:42;;;;;;;6.22;3.95;;;;;;;;;;5086561;28;20048;-67
2021/03/13 05:06:27;;;;;;;7.07;4.70;;;;;;;;;;5074265;28;20044;-67
2021/03/13 05:09:12;;;;;;;7.38;3.88;;;;;;;;;;5074798;28;20075;-67
2021/03/13 05:11:58;;;;;;;4.85;4.13;;;;;;;;;;5072647;28;20048;-67
2021/03/13 05:14:43;;;;;;;8.73;3.78;;;;;;;;;;5054240;28;20045;-68
2021/03/13 05:17:28;;;;;;;7.07;4.25;;;;;;;;;;5054575;28;20045;-67
2021/03/13 05:20:14;;;;;;;7.22;4.28;;;;;;;;;;5054386;28;20037;-67
2021/03/13 05:22:59;;;;;;;6.72;4.10;;;;;;;;;;5061293;28;20036;-69
2021/03/13 05:25:44;;;;;;;5.50;3.90;;;;;;;;;;5073956;28;20037;-67
2021/03/13 05:28:30;;;;;;;4.90;3.60;;;;;;;;;;5074340;28;20068;-67
2021/03/13 05:31:15;;;;;;;6.88;4.00;;;;;;;;;;5074163;28;20049;-68
2021/03/13 05:34:01;;;;;;;6.97;3.72;;;;;;;;;;5061074;28;20045;-67
2021/03/13 05:36:46;;;;;;;5.80;3.33;;;;;;;;;;5053111;28;20041;-67
2021/03/13 05:39:31;;;;;;;6.75;3.72;;;;;;;;;;5066983;28;20509;-66
2021/03/13 05:42:16;;;;;;;6.28;3.35;;;;;;;;;;5054093;28;20053;-68
2021/03/13 05:45:01;;;;;;;4.88;3.17;;;;;;;;;;5071905;28;20055;-67
2021/03/13 05:47:47;;;;;;;5.97;4.15;;;;;;;;;;5086767;28;20392;-67
2021/03/13 05:50:32;;;;;;;6.15;3.35;;;;;;;;;;5086969;28;20383;-68
2021/03/13 05:53:18;;;;;;;5.47;3.78;;;;;;;;;;5085533;28;20044;-67
2021/03/13 05:56:03;;;;;;;6.20;3.55;;;;;;;;;;5053369;28;20491;-67
2021/03/13 05:58:49;;;;;;;4.75;2.80;;;;;;;;;;5066584;28;20045;-67
2021/03/13 06:01:34;;;;;;;4.20;2.67;;;;;;;;;;5065664;28;20041;-68
2021/03/13 06:04:19;;;;;;;6.70;3.10;;;;;;;;;;5073312;28;20056;-68
2021/03/13 06:07:05;;;;;;;3.85;2.65;;;;;;;;;;5073331;28;20554;-67
2021/03/13 06:09:51;;;;;;;4.18;2.70;;;;;;;;;;5072402;28;20037;-67
2021/03/13 06:12:36;;;;;;;7.13;2.78;;;;;;;;;;5068278;28;20059;-67
2021/03/13 06:15:21;;;;;;;5.32;2.15;;;;;;;;;;5066061;28;20049;-67
2021/03/13 06:18:06;;;;;;;4.75;2.47;;;;;;;;;;5053285;28;20045;-68
2021/03/13 06:20:52;;;;;;;4.50;2.08;;;;;;;;;;5052760;28;20090;-67
2021/03/13 06:23:37;;;;;;;5.35;2.65;;;;;;;;;;5073061;28;20056;-68
2021/03/13 06:26:22;;;;;;;3.70;2.50;;;;;;;;;;5072765;28;20044;-67
2021/03/13 06:29:14;;;;;;;3.47;2.15;;;;;;;;;;5073009;28;20052;-67
2021/03/13 06:32:11;;;;;;;6.70;2.40;;;;;;;;;;5065444;28;20044;-67
2021/03/13 06:34:56;;;;;;;5.75;2.10;;;;;;;;;;5052706;28;20048;-67
2021/03/13 06:37:41;;;;;;;6.85;2.17;;;;;;;;;;5052776;28;20578;-67
2021/03/13 06:40:36;;;;;;;3.30;2.15;;;;;;;;;;5052808;28;20407;-68
2021/03/13 06:43:24;;;;;;;4.93;2.60;;;;;;;;;;5068285;28;20055;-67
2021/03/13 06:46:10;;;;;;;4.35;2.13;;;;;;;;;;5071986;28;20410;-68
2021/03/13 06:48:57;;;;;;;3.88;1.80;;;;;;;;;;5072539;28;20049;-68
2021/03/13 06:51:42;;;;;;;3.30;2.35;;;;;;;;;;5072774;28;20127;-67
2021/03/13 06:54:28;;;;;;;7.35;1.58;;;;;;;;;;5052324;28;20179;-66
2021/03/13 06:57:14;;;;;;;0.88;0.30;;;;;;;;;;5065415;28;20491;-65
2021/03/13 07:00:02;;;;;;;5.32;0.50;;;;;;;;;;5074405;28;20491;-66
2021/03/13 07:02:47;;;;;;;7.53;0.80;;;;;;;;;;5075859;28;20066;-66
2021/03/13 07:05:33;;;;;;;3.13;0.47;;;;;;;;;;5075252;28;20087;-66
2021/03/13 07:08:27;;;;;;;3.13;0.68;;;;;;;;;;5065593;28;20502;-66
2021/03/13 07:11:12;;;;;;;4.53;0.70;;;;;;;;;;5062988;28;20040;-67
2021/03/13 07:13:57;;;;;;;4.78;0.50;;;;;;;;;;5063034;28;21568;-67
2021/03/13 07:16:43;;;;;;;3.25;0.70;;;;;;;;;;5062875;28;20040;-67
2021/03/13 07:19:28;;;;;;;3.03;0.40;;;;;;;;;;5060275;28;20132;-66
2021/03/13 07:22:14;;;;;;;2.55;0.47;;;;;;;;;;5079013;28;20091;-66
2021/03/13 07:24:59;;;;;;;2.92;0.40;;;;;;;;;;5071946;28;20044;-67
2021/03/13 07:27:44;;;;;;;2.65;0.70;;;;;;;;;;5079424;28;20044;-67
2021/03/13 07:30:30;;;;;;;6.75;1.27;;;;;;;;;;5076305;28;20036;-67
2021/03/13 07:33:15;;;;;;;3.28;0.70;;;;;;;;;;5076036;28;20083;-67
2021/03/13 07:36:01;;;;;;;4.38;0.80;;;;;;;;;;5075459;28;20037;-67
2021/03/13 07:38:46;;;;;;;7.72;1.25;;;;;;;;;;5075624;28;20045;-67
2021/03/13 07:41:31;;;;;;;9.18;1.45;;;;;;;;;;5069338;28;20068;-67
2021/03/13 07:44:16;;;;;;;4.63;0.73;;;;;;;;;;5051807;28;20120;-66
2021/03/13 07:47:02;;;;;;;4.35;0.77;;;;;;;;;;5105627;22;20041;-63
2021/03/13 07:49:47;;;;;;;9.40;1.40;;;;;;;;;;5031173;28;20402;-63
2021/03/13 07:52:32;;;;;;;6.53;1.40;;;;;;;;;;5031929;28;20060;-63
2021/03/13 07:55:18;;;;;;;7.32;1.30;;;;;;;;;;5030639;28;20056;-63
2021/03/13 07:58:03;;;;;;;6.88;1.80;;;;;;;;;;5034345;28;20053;-63
2021/03/13 08:00:49;;;;;;;6.82;1.73;;;;;;;;;;5060353;28;20045;-63
2021/03/13 08:03:35;;;;;;;10.82;2.17;;;;;;;;;;5047337;28;20041;-63
2021/03/13 08:06:20;;;;;;;12.27;1.88;;;;;;;;;;5045985;28;20407;-63
2021/03/13 08:09:24;;;;;;;9.50;2.45;;;;;;;;;;5046382;28;20037;-63
2021/03/13 08:12:09;;;;;;;11.63;2.35;;;;;;;;;;5051767;28;20131;-63
2021/03/13 08:14:54;;;;;;;13.02;3.20;;;;;;;;;;5055469;28;20127;-63
2021/03/13 08:17:40;;;;;;;10.15;2.17;;;;;;;;;;5055495;28;20048;-63
2021/03/13 08:20:49;;;;;;;16.00;3.03;;;;;;;;;;5055324;28;20045;-64
2021/03/13 08:23:47;;;;;;;13.63;3.17;;;;;;;;;;5002739;28;20499;-65
2021/03/13 08:26:35;;;;;;;17.50;2.85;;;;;;;;;;5034950;28;20045;-63
2021/03/13 08:29:20;;;;;;;9.05;2.03;;;;;;;;;;5035399;28;20045;-63
2021/03/13 08:32:05;;;;;;;9.77;2.58;;;;;;;;;;5057499;28;20649;-63
2021/03/13 08:34:50;;;;;;;11.88;3.05;;;;;;;;;;5055037;28;20072;-63
2021/03/13 08:37:47;;;;;;;10.45;2.17;;;;;;;;;;5055123;28;20044;-64
2021/03/13 08:40:33;;;;;;;8.60;1.45;;;;;;;;;;5055275;28;20053;-64
2021/03/13 08:43:34;;;;;;;4.35;0.90;;;;;;;;;;5038610;28;20496;-64
2021/03/13 08:46:38;;;;;;;3.17;0.80;;;;;;;;;;5035713;28;20484;-64
2021/03/13 08:49:27;;;;;;;6.60;0.95;;;;;;;;;;5035002;28;20041;-64
2021/03/13 08:52:16;;;;;;;5.90;1.50;;;;;;;;;;5036611;28;20136;-64
2021/03/13 08:55:02;;;;;;;8.00;1.10;;;;;;;;;;5034755;28;20050;-63
2021/03/13 08:57:48;;;;;;;9.05;1.65;;;;;;;;;;5048870;28;20041;-64
2021/03/13 09:00:34;;;;;;;12.15;2.58;;;;;;;;;;5034987;28;20045;-63
2021/03/13 09:03:19;;;;;;;7.88;1.15;;;;;;;;;;5034720;28;20519;-63
2021/03/13 09:06:04;;;;;;;5.65;1.20;;;;;;;;;;5034320;28;20045;-63
2021/03/13 09:08:49;;;;;;;5.28;0.93;;;;;;;;;;5051771;28;20041;-63
2021/03/13 09:11:36;;;;;;;4.78;1.20;;;;;;;;;;5054682;28;20072;-63
2021/03/13 09:14:21;;;;;;;6.47;1.40;;;;;;;;;;5054275;28;20057;-63
2021/03/13 09:17:10;;;;;;;6.25;1.42;;;;;;;;;;5054571;28;20187;-63
2021/03/13 09:19:55;;;;;;;7.57;2.17;;;;;;;;;;5034568;28;20049;-63
2021/03/13 09:22:41;;;;;;;11.82;3.10;;;;;;;;;;5034389;28;20389;-63
2021/03/13 09:25:27;;;;;;;13.70;1.85;;;;;;;;;;5034162;28;20499;-63
2021/03/13 09:28:12;;;;;;;10.55;2.42;;;;;;;;;;5033666;28;20037;-63
2021/03/13 09:30:57;;;;;;;22.08;3.20;;;;;;;;;;5034299;28;20053;-64
2021/03/13 09:33:43;;;;;;;23.38;2.83;;;;;;;;;;5034365;28;20061;-64
2021/03/13 09:36:29;;;;;;;17.40;3.40;;;;;;;;;;5033869;28;20488;-64
2021/03/13 09:39:20;;;;;;;20.40;3.28;;;;;;;;;;5044829;28;20041;-64
2021/03/13 09:42:08;;;;;;;11.27;2.75;;;;;;;;;;5053965;28;20040;-64
2021/03/13 09:44:54;;;;;;;15.07;2.72;;;;;;;;;;5053640;28;20037;-64
2021/03/13 09:47:43;;;;;;;14.40;3.03;;;;;;;;;;5053732;28;20049;-65
2021/03/13 09:50:32;;;;;;;16.42;3.50;;;;;;;;;;5048543;28;20049;-65
2021/03/13 09:53:18;;;;;;;12.43;2.58;;;;;;;;;;5034553;28;20045;-66
2021/03/13 09:56:04;;;;;;;9.30;2.55;;;;;;;;;;5054151;28;20038;-66
2021/03/13 09:58:59;;;;;;;13.60;3.35;;;;;;;;;;5044481;28;20041;-65
2021/03/13 10:01:45;;;;;;;12.32;2.72;;;;;;;;;;5048600;28;20123;-65
2021/03/13 10:04:31;;;;;;;14.52;2.85;;;;;;;;;;5053079;28;20053;-65
2021/03/13 10:07:16;;;;;;;13.98;3.35;;;;;;;;;;5040227;28;20461;-66
2021/03/13 10:10:02;;;;;;;18.70;3.70;;;;;;;;;;5056865;28;20049;-66
2021/03/13 10:12:48;;;;;;;10.60;2.80;;;;;;;;;;5050124;28;20495;-66
2021/03/13 10:15:34;;;;;;;11.25;2.58;;;;;;;;;;5038486;28;20037;-66
2021/03/13 10:18:23;;;;;;;9.38;2.25;;;;;;;;;;5066360;28;20045;-66
2021/03/13 10:21:08;;;;;;;12.70;2.40;;;;;;;;;;5038361;28;20042;-66
2021/03/13 10:23:58;;;;;;;14.25;3.15;;;;;;;;;;5033245;28;20042;-67
2021/03/13 10:26:43;;;;;;;13.02;2.60;;;;;;;;;;5039153;28;20045;-67
2021/03/13 10:29:29;;;;;;;13.55;2.17;;;;;;;;;;5053002;28;20495;-66
2021/03/13 10:32:14;;;;;;;14.02;3.40;;;;;;;;;;5046230;28;20105;-65
2021/03/13 10:35:06;;;;;;;11.15;2.42;;;;;;;;;;5032757;28;20049;-67
2021/03/13 10:37:52;;;;;;;10.10;2.08;;;;;;;;;;5032724;28;20037;-66
2021/03/13 10:40:39;;;;;;;14.32;2.58;;;;;;;;;;5033343;28;20041;-66
2021/03/13 10:43:33;;;;;;;9.00;2.03;;;;;;;;;;5032671;28;20149;-65
2021/03/13 10:46:21;;;;;;;13.80;3.55;;;;;;;;;;5040368;28;20126;-66
2021/03/13 10:49:07;;;;;;;15.15;2.45;;;;;;;;;;5050485;28;20112;-66
2021/03/13 10:51:53;;;;;;;12.93;2.55;;;;;;;;;;5032944;28;20049;-66
2021/03/13 10:54:38;;;;;;;19.13;3.15;;;;;;;;;;5032225;28;20042;-66
2021/03/13 10:57:23;;;;;;;13.60;3.28;;;;;;;;;;5046048;28;20065;-66
2021/03/13 11:00:09;;;;;;;9.77;2.50;;;;;;;;;;5042983;28;20037;-65
2021/03/13 11:02:55;;;;;;;7.03;2.03;;;;;;;;;;5042489;28;20041;-66
2021/03/13 11:05:40;;;;;;;9.35;1.58;;;;;;;;;;5045424;28;20053;-65
2021/03/13 11:08:26;;;;;;;7.47;1.80;;;;;;;;;;5040922;28;20495;-66
2021/03/13 11:11:11;;;;;;;8.98;1.23;;;;;;;;;;5047324;28;20491;-65
2021/03/13 11:13:56;;;;;;;7.47;1.40;;;;;;;;;;5040139;28;20674;-66
2021/03/13 11:16:43;;;;;;;10.20;1.92;;;;;;;;;;5032073;28;20053;-66
2021/03/13 11:19:29;;;;;;;11.68;2.35;;;;;;;;;;5032053;28;20432;-65
2021/03/13 11:22:15;;;;;;;12.52;2.72;;;;;;;;;;5036398;28;20449;-65
2021/03/13 11:25:00;;;;;;;12.65;3.35;;;;;;;;;;5064898;28;20040;-66
2021/03/13 11:27:46;;;;;;;11.70;2.67;;;;;;;;;;5051978;28;20115;-66
2021/03/13 11:30:31;;;;;;;15.25;3.65;;;;;;;;;;5048139;28;20050;-65
2021/03/13 11:33:16;;;;;;;11.75;2.70;;;;;;;;;;5031204;28;20454;-66
2021/03/13 11:36:02;;;;;;;15.88;3.25;;;;;;;;;;5031623;28;20045;-66
2021/03/13 11:38:47;;;;;;;9.30;2.95;;;;;;;;;;5032031;28;20049;-65
2021/03/13 11:41:32;;;;;;;12.05;2.35;;;;;;;;;;5054254;28;20045;-66
2021/03/13 11:44:17;;;;;;;13.30;2.50;;;;;;;;;;5051513;28;20144;-66
2021/03/13 11:47:03;;;;;;;11.55;3.13;;;;;;;;;;5051268;28;20053;-67
2021/03/13 11:49:48;;;;;;;12.68;3.35;;;;;;;;;;5051746;28;20041;-66
2021/03/13 11:52:34;;;;;;;11.15;2.95;;;;;;;;;;5050026;28;20041;-66
2021/03/13 11:55:19;;;;;;;13.48;3.03;;;;;;;;;;5051567;28;20053;-67
2021/03/13 11:58:04;;;;;;;12.50;2.50;;;;;;;;;;5051685;28;20041;-66
2021/03/13 12:00:51;;;;;;;19.52;3.60;;;;;;;;;;5049883;28;20487;-66
2021/03/13 12:03:37;;;;;;;12.07;2.00;;;;;;;;;;5051501;28;20041;-67
2021/03/13 12:06:22;;;;;;;9.45;2.10;;;;;;;;;;5051299;28;20049;-66
2021/03/13 12:09:08;;;;;;;8.40;1.50;;;;;;;;;;5051574;28;20045;-67
2021/03/13 12:11:53;;;;;;;7.00;2.33;;;;;;;;;;5038051;28;20041;-66
2021/03/13 12:14:38;;;;;;;6.85;1.40;;;;;;;;;;5031386;28;20053;-66
2021/03/13 12:17:24;;;;;;;9.32;1.50;;;;;;;;;;5044437;28;20053;-66
2021/03/13 12:20:09;;;;;;;8.73;1.95;;;;;;;;;;5031628;28;20049;-66
2021/03/13 12:22:55;;;;;;;15.52;2.85;;;;;;;;;;5049813;28;20053;-66
2021/03/13 12:25:40;;;;;;;10.55;2.97;;;;;;;;;;5041967;28;20045;-66
2021/03/13 12:28:25;;;;;;;4.95;1.10;;;;;;;;;;5042545;28;20096;-66
2021/03/13 12:31:11;;;;;;;3.83;1.02;;;;;;;;;;5042875;28;20037;-66
2021/03/13 12:33:56;;;;;;;5.10;0.98;;;;;;;;;;5047041;28;20045;-65
2021/03/13 12:36:41;;;;;;;4.22;0.82;;;;;;;;;;5051305;28;20049;-65
2021/03/13 12:39:27;;;;;;;4.05;0.68;;;;;;;;;;5051569;28;20077;-64
2021/03/13 12:42:12;;;;;;;2.40;0.65;;;;;;;;;;5044687;28;20514;-65
2021/03/13 12:44:57;;;;;;;3.47;0.52;;;;;;;;;;5032534;28;20128;-64
2021/03/13 12:47:44;;;;;;;6.80;0.90;;;;;;;;;;5034977;28;20050;-64
2021/03/13 12:50:29;;;;;;;3.58;1.20;;;;;;;;;;5035136;28;20443;-64
2021/03/13 12:53:14;;;;;;;8.75;1.45;;;;;;;;;;5046805;28;20099;-64
2021/03/13 12:56:00;;;;;;;9.88;2.13;;;;;;;;;;5054759;28;20415;-64
2021/03/13 12:58:45;;;;;;;10.05;2.40;;;;;;;;;;5054763;28;20037;-65
2021/03/13 13:01:30;;;;;;;15.05;1.80;;;;;;;;;;5054796;28;20045;-65
2021/03/13 13:04:16;;;;;;;12.27;3.13;;;;;;;;;;5036639;28;20444;-65
2021/03/13 13:07:01;;;;;;;15.18;2.70;;;;;;;;;;5034696;28;20041;-65
2021/03/13 13:09:47;;;;;;;11.18;2.42;;;;;;;;;;5034649;28;20055;-65
2021/03/13 13:12:32;;;;;;;17.13;2.42;;;;;;;;;;5035080;28;20037;-65
2021/03/13 13:15:17;;;;;;;11.75;2.97;;;;;;;;;;5054254;28;20041;-64
2021/03/13 13:18:02;;;;;;;12.05;2.53;;;;;;;;;;5054439;28;20071;-65
2021/03/13 13:20:48;;;;;;;10.38;2.53;;;;;;;;;;5047183;28;20307;-64
2021/03/13 13:23:33;;;;;;;7.47;1.92;;;;;;;;;;5044261;28;20033;-64
2021/03/13 13:26:19;;;;;;;7.50;2.03;;;;;;;;;;5046857;28;20048;-65
2021/03/13 13:29:04;;;;;;;8.30;1.65;;;;;;;;;;5049934;28;20079;-66
2021/03/13 13:31:50;;;;;;;6.50;1.48;;;;;;;;;;5049569;28;20045;-65
2021/03/13 13:34:35;;;;;;;4.40;1.50;;;;;;;;;;5049013;28;20450;-65
2021/03/13 13:37:21;;;;;;;6.90;1.42;;;;;;;;;;5049615;28;20040;-65
2021/03/13 13:40:08;;;;;;;7.72;1.85;;;;;;;;;;5051236;28;20499;-65
2021/03/13 13:42:53;;;;;;;9.88;2.97;;;;;;;;;;5046453;28;20484;-66
2021/03/13 13:45:39;;;;;;;7.60;2.15;;;;;;;;;;5049114;28;20067;-66
2021/03/13 13:48:24;;;;;;;12.90;2.10;;;;;;;;;;5064730;22;20048;-63
2021/03/13 13:51:09;;;;;;;9.70;1.95;;;;;;;;;;5059665;28;20033;-64
2021/03/13 13:53:55;;;;;;;4.68;1.60;;;;;;;;;;5062258;28;20493;-64
2021/03/13 13:56:40;;;;;;;8.02;1.85;;;;;;;;;;5060270;28;20056;-64
2021/03/13 13:59:26;;;;;;;7.72;2.10;;;;;;;;;;5037727;28;20087;-64
2021/03/13 14:02:11;;;;;;;11.93;2.67;;;;;;;;;;5040324;28;20057;-64
2021/03/13 14:04:57;;;;;;;12.23;3.03;;;;;;;;;;5037641;28;20492;-63
2021/03/13 14:07:42;;;;;;;5.72;2.10;;;;;;;;;;5034665;28;20049;-63
2021/03/13 14:10:28;;;;;;;6.85;1.27;;;;;;;;;;5042232;28;20409;-63
2021/03/13 14:13:13;;;;;;;7.22;2.13;;;;;;;;;;5032649;28;20061;-63
2021/03/13 14:15:59;;;;;;;10.13;2.65;;;;;;;;;;5049544;28;20071;-63
2021/03/13 14:18:44;;;;;;;7.15;1.70;;;;;;;;;;5031125;28;20041;-62
2021/03/13 14:21:29;;;;;;;9.80;2.00;;;;;;;;;;5032787;28;20080;-62
2021/03/13 14:24:15;;;;;;;7.18;1.50;;;;;;;;;;5033021;28;20041;-63
2021/03/13 14:27:00;;;;;;;6.78;1.95;;;;;;;;;;5022029;28;20042;-63
2021/03/13 14:29:45;;;;;;;6.90;1.73;;;;;;;;;;5030702;28;20132;-63
2021/03/13 14:32:30;;;;;;;7.10;1.80;;;;;;;;;;5026603;28;20045;-63
2021/03/13 14:35:19;;;;;;;7.65;1.30;;;;;;;;;;5019681;28;20073;-63
2021/03/13 14:38:05;;;;;;;3.80;1.17;;;;;;;;;;5028679;28;20525;-63
2021/03/13 14:40:51;;;;;;;5.85;1.17;;;;;;;;;;5028691;28;20124;-63
2021/03/13 14:43:36;;;;;;;5.57;1.23;;;;;;;;;;5027456;28;20037;-63
2021/03/13 14:46:21;;;;;;;5.45;1.00;;;;;;;;;;5026659;28;20053;-62
2021/03/13 14:49:07;;;;;;;5.57;1.13;;;;;;;;;;5024819;28;20042;-63
2021/03/13 14:51:52;;;;;;;5.75;1.23;;;;;;;;;;5032717;28;20059;-63
2021/03/13 14:54:39;;;;;;;6.25;1.00;;;;;;;;;;5012670;28;20126;-63
2021/03/13 14:57:25;;;;;;;5.90;1.05;;;;;;;;;;5024842;28;20057;-63
2021/03/13 15:00:14;;;;;;;6.03;1.00;;;;;;;;;;5020406;28;20069;-63
2021/03/13 15:02:59;;;;;;;8.38;1.58;;;;;;;;;;5016874;28;20037;-63
2021/03/13 15:05:45;;;;;;;6.07;1.42;;;;;;;;;;5029087;28;20042;-62
2021/03/13 15:08:30;;;;;;;7.13;1.73;;;;;;;;;;5019254;28;20049;-63
2021/03/13 15:11:16;;;;;;;8.35;1.83;;;;;;;;;;5032364;28;20037;-63
2021/03/13 15:14:02;;;;;;;7.32;1.55;;;;;;;;;;5031891;28;20052;-63
2021/03/13 15:16:47;;;;;;;8.20;1.60;;;;;;;;;;5032283;28;20037;-62
2021/03/13 15:19:34;;;;;;;6.40;1.88;;;;;;;;;;5032361;28;20053;-62
2021/03/13 15:22:20;;;;;;;11.30;2.80;;;;;;;;;;5032286;28;20507;-62
2021/03/13 15:25:05;;;;;;;7.47;1.83;;;;;;;;;;5031362;28;20483;-62
2021/03/13 15:27:51;;;;;;;12.55;1.90;;;;;;;;;;5032297;28;20120;-62
2021/03/13 15:30:37;;;;;;;6.63;1.50;;;;;;;;;;5032091;28;20041;-62
2021/03/13 15:33:22;;;;;;;8.93;2.15;;;;;;;;;;5031031;28;20521;-63
2021/03/13 15:36:08;;;;;;;5.78;1.38;;;;;;;;;;5029486;28;20116;-62
2021/03/13 15:38:53;;;;;;;6.03;1.90;;;;;;;;;;5033129;28;20069;-62
2021/03/13 15:41:39;;;;;;;1.08;0.52;;;;;;;;;;5032015;28;20045;-63
2021/03/13 15:44:24;;;;;;;2.67;0.60;;;;;;;;;;5029460;28;20038;-64
2021/03/13 15:47:10;;;;;;;3.72;0.70;;;;;;;;;;5032108;28;20517;-61
2021/03/13 15:49:55;;;;;;;4.65;0.65;;;;;;;;;;5032021;28;20045;-62
2021/03/13 15:52:40;;;;;;;4.43;0.70;;;;;;;;;;5031962;28;20029;-63
2021/03/13 15:55:26;;;;;;;5.65;0.90;;;;;;;;;;5030908;28;20570;-61
2021/03/13 15:58:11;;;;;;;5.07;0.85;;;;;;;;;;5030726;28;20045;-62
2021/03/13 16:00:58;;;;;;;5.28;1.15;;;;;;;;;;5031165;28;20069;-61
2021/03/13 16:03:48;;;;;;;2.97;0.60;;;;;;;;;;5032696;28;20053;-62
2021/03/13 16:06:34;;;;;;;2.65;0.68;;;;;;;;;;5031737;28;20033;-61
2021/03/13 16:09:19;;;;;;;4.07;1.30;;;;;;;;;;5039761;28;20053;-62
2021/03/13 16:12:05;;;;;;;3.05;0.55;;;;;;;;;;5038629;28;20423;-63
2021/03/13 16:14:51;;;;;;;4.35;0.60;;;;;;;;;;5033224;28;20628;-62
2021/03/13 16:17:36;;;;;;;2.40;0.68;;;;;;;;;;5039679;28;20442;-61
2021/03/13 16:20:23;;;;;;;4.13;0.60;;;;;;;;;;5036664;28;20045;-62
2021/03/13 16:23:09;;;;;;;3.60;0.60;;;;;;;;;;5040090;28;20040;-62
2021/03/13 16:25:55;;;;;;;1.75;0.55;;;;;;;;;;5042196;28;20431;-62
2021/03/13 16:28:41;;;;;;;3.80;0.70;;;;;;;;;;5050484;28;20052;-61
2021/03/13 16:31:26;;;;;;;3.22;0.80;;;;;;;;;;5043201;28;20045;-62
2021/03/13 16:34:12;;;;;;;1.45;0.60;;;;;;;;;;5039295;28;20128;-62